Portland, Oregon
Traffic Map
Current Weather Conditions
Portland, Oregon
Clear
Clear
37°
Feels Like: 37°
Wind Chill: 37° Ceiling: Unl
Heat Index: 37° Visibility: 10mi
Dew Point: 37° Wind: 0mph
Humidity: 100% Direction: ° ()
Pressure: 30.31in Gusts: 0mph
Raw Report DataKPDX 301053Z 00000KT 10SM CLR 03/03 A3031 RMK AO2 SLP262 T00280028
Traffic Incident Summary
Active as of:
Severity:
Category:
InformationThere was an issue retrieving the traffic information for this location. Please try a different location or try again shortly.
Advertisements
Track Severe Weather on mobile